Time;durP1;ratioP1;P1;durP2;ratioP2;P2;SDS_P1;SDS_P2;PMS_P1;PMS_P2;Temp;Humidity;BMP_temperature;BMP_pressure;BME280_temperature;BME280_humidity;BME280_pressure;Samples;Min_cycle;Max_cycle;Signal;HPM_P1;HPM_P2
2023/09/22 00:02:09;;;;;;;;;;;21.70;64.40;;;;;;5043109;28;88542;-56
2023/09/22 00:04:35;;;;;;;;;;;21.70;64.40;;;;;;5047089;28;86410;-61
2023/09/22 00:07:01;;;;;;;;;;;21.60;64.40;;;;;;5042129;28;88560;-58
2023/09/22 00:09:26;;;;;;;;;;;21.70;64.40;;;;;;5043161;27;87326;-53
2023/09/22 00:11:52;;;;;;;;;;;21.70;64.40;;;;;;5042853;27;87815;-54
2023/09/22 00:14:17;;;;;;;;;;;21.60;64.40;;;;;;5043223;27;88122;-61
2023/09/22 00:16:43;;;;;;;;;;;21.70;64.50;;;;;;5043276;28;87547;-56
2023/09/22 00:19:08;;;;;;;;;;;21.60;64.40;;;;;;5043119;28;87229;-50
2023/09/22 00:21:34;;;;;;;;;;;21.60;64.40;;;;;;5043160;27;88128;-56
2023/09/22 00:24:01;;;;;;;;;;;21.70;64.50;;;;;;5042858;27;87155;-58
2023/09/22 00:26:26;;;;;;;;;;;21.60;64.40;;;;;;5045903;27;87558;-54
2023/09/22 00:28:52;;;;;;;;;;;21.60;64.40;;;;;;5043403;27;86413;-57
2023/09/22 00:31:17;;;;;;;;;;;21.60;64.40;;;;;;5043183;28;87122;-51
2023/09/22 00:33:43;;;;;;;;;;;21.60;64.40;;;;;;5042867;27;87144;-58
2023/09/22 00:36:09;;;;;;;;;;;21.60;64.40;;;;;;5042598;28;88040;-56
2023/09/22 00:38:34;;;;;;;;;;;21.60;64.40;;;;;;5042817;28;88531;-54
2023/09/22 00:41:00;;;;;;;;;;;21.60;64.40;;;;;;5042559;28;88196;-50
2023/09/22 00:43:25;;;;;;;;;;;21.60;64.40;;;;;;5042982;28;87807;-58
2023/09/22 00:45:52;;;;;;;;;;;21.60;64.40;;;;;;5043069;28;87501;-52
2023/09/22 00:48:22;;;;;;;;;;;21.60;64.50;;;;;;5041721;28;87414;-57
2023/09/22 00:50:49;;;;;;;;;;;21.60;64.60;;;;;;5042925;28;87662;-54
2023/09/22 00:53:16;;;;;;;;;;;21.60;64.60;;;;;;5042954;27;87623;-56
2023/09/22 00:55:41;;;;;;;;;;;21.60;64.60;;;;;;5042943;27;87120;-52
2023/09/22 00:58:07;;;;;;;;;;;21.60;64.50;;;;;;5042943;27;87640;-62
2023/09/22 01:00:33;;;;;;;;;;;21.50;64.50;;;;;;5041656;28;89422;-50
2023/09/22 01:02:59;;;;;;;;;;;21.60;64.60;;;;;;5042728;27;87099;-53
2023/09/22 01:05:25;;;;;;;;;;;21.60;64.50;;;;;;5042705;27;87657;-57
2023/09/22 01:07:51;;;;;;;;;;;21.50;64.60;;;;;;5042369;27;88460;-56
2023/09/22 01:10:16;;;;;;;;;;;21.50;64.70;;;;;;5044710;27;87120;-56
2023/09/22 01:12:42;;;;;;;;;;;21.50;64.60;;;;;;5040736;28;90545;-54
2023/09/22 01:15:09;;;;;;;;;;;21.50;64.60;;;;;;5042410;27;87230;-57
2023/09/22 01:17:34;;;;;;;;;;;21.50;64.70;;;;;;5045997;27;87581;-53
2023/09/22 01:20:00;;;;;;;;;;;21.50;64.60;;;;;;5049139;28;88756;-53
2023/09/22 01:22:25;;;;;;;;;;;21.40;64.70;;;;;;5049081;27;87103;-54
2023/09/22 01:24:51;;;;;;;;;;;21.50;64.80;;;;;;5048114;28;88088;-48
2023/09/22 01:27:17;;;;;;;;;;;21.40;64.70;;;;;;5048724;28;87630;-58
2023/09/22 01:29:43;;;;;;;;;;;21.50;64.70;;;;;;5052230;27;87282;-54
2023/09/22 01:32:09;;;;;;;;;;;21.50;64.80;;;;;;5048684;28;89699;-53
2023/09/22 01:34:35;;;;;;;;;;;21.40;64.80;;;;;;5049082;28;87166;-58
2023/09/22 01:37:07;;;;;;;;;;;21.40;64.80;;;;;;5048966;27;88972;-60
2023/09/22 01:39:36;;;;;;;;;;;21.40;64.80;;;;;;5047960;27;89571;-57
2023/09/22 01:42:01;;;;;;;;;;;21.40;64.90;;;;;;5049462;27;86458;-50
2023/09/22 01:44:27;;;;;;;;;;;21.40;64.90;;;;;;5049018;28;87451;-58
2023/09/22 01:46:52;;;;;;;;;;;21.40;64.90;;;;;;5044700;28;88304;-53
2023/09/22 01:49:18;;;;;;;;;;;21.40;64.80;;;;;;5048182;28;88048;-56
2023/09/22 01:51:43;;;;;;;;;;;21.30;64.80;;;;;;5051604;28;89009;-59
2023/09/22 01:54:09;;;;;;;;;;;21.30;64.90;;;;;;5048820;28;87210;-58
2023/09/22 01:56:35;;;;;;;;;;;21.30;64.80;;;;;;5048481;27;89081;-63
2023/09/22 01:59:00;;;;;;;;;;;21.30;64.90;;;;;;5048413;28;88441;-50
2023/09/22 02:01:26;;;;;;;;;;;21.40;64.90;;;;;;5048262;28;87542;-54
2023/09/22 02:03:51;;;;;;;;;;;21.30;64.80;;;;;;5048698;28;87860;-58
2023/09/22 02:06:17;;;;;;;;;;;21.30;64.90;;;;;;5048987;28;87876;-52
2023/09/22 02:08:43;;;;;;;;;;;21.30;65.00;;;;;;5048814;28;87093;-55
2023/09/22 02:11:10;;;;;;;;;;;21.30;64.90;;;;;;5048041;27;87439;-52
2023/09/22 02:13:35;;;;;;;;;;;21.30;64.90;;;;;;5050350;27;89532;-60
2023/09/22 02:16:02;;;;;;;;;;;21.20;64.90;;;;;;5048196;27;89591;-50
2023/09/22 02:18:28;;;;;;;;;;;21.30;65.00;;;;;;5047984;27;88224;-55
2023/09/22 02:20:53;;;;;;;;;;;21.30;65.00;;;;;;5048611;28;87229;-52
2023/09/22 02:23:19;;;;;;;;;;;21.30;64.90;;;;;;5048664;27;87838;-53
2023/09/22 02:25:44;;;;;;;;;;;21.30;65.00;;;;;;5047454;28;88306;-50
2023/09/22 02:28:10;;;;;;;;;;;21.30;64.90;;;;;;5047645;28;87010;-56
2023/09/22 02:30:37;;;;;;;;;;;21.20;65.00;;;;;;5045089;28;87834;-59
2023/09/22 02:33:03;;;;;;;;;;;21.20;65.00;;;;;;5044605;27;89694;-53
2023/09/22 02:35:28;;;;;;;;;;;21.20;65.00;;;;;;5047798;28;87164;-49
2023/09/22 02:37:54;;;;;;;;;;;21.20;65.00;;;;;;5044096;28;90243;-57
2023/09/22 02:40:20;;;;;;;;;;;21.20;65.00;;;;;;5044472;28;87129;-57
2023/09/22 02:42:45;;;;;;;;;;;21.20;65.00;;;;;;5045110;27;87919;-53
2023/09/22 02:45:11;;;;;;;;;;;21.20;65.00;;;;;;5044608;27;88324;-49
2023/09/22 02:47:38;;;;;;;;;;;21.20;65.00;;;;;;5044635;27;87143;-55
2023/09/22 02:50:04;;;;;;;;;;;21.10;65.00;;;;;;5044800;28;89148;-57
2023/09/22 02:52:30;;;;;;;;;;;21.10;64.90;;;;;;5044502;28;88389;-56
2023/09/22 02:54:57;;;;;;;;;;;21.10;64.90;;;;;;5044908;27;86403;-57
2023/09/22 02:57:23;;;;;;;;;;;21.10;65.00;;;;;;5046872;27;88679;-53
2023/09/22 02:59:54;;;;;;;;;;;21.20;65.00;;;;;;5044808;27;87110;-55
2023/09/22 03:02:20;;;;;;;;;;;21.10;64.90;;;;;;5043521;27;88394;-61
2023/09/22 03:04:46;;;;;;;;;;;21.10;64.80;;;;;;5043990;27;89691;-60
2023/09/22 03:07:12;;;;;;;;;;;21.10;64.90;;;;;;5040694;28;87013;-53
2023/09/22 03:09:38;;;;;;;;;;;21.10;64.90;;;;;;5044588;28;87679;-59
2023/09/22 03:12:03;;;;;;;;;;;21.10;64.90;;;;;;5043703;28;88177;-58
2023/09/22 03:14:29;;;;;;;;;;;21.10;64.90;;;;;;5044313;28;87119;-52
2023/09/22 03:16:55;;;;;;;;;;;21.10;65.00;;;;;;5044536;28;88006;-56
2023/09/22 03:19:21;;;;;;;;;;;21.10;64.90;;;;;;5047401;27;86563;-55
2023/09/22 03:21:46;;;;;;;;;;;21.10;64.90;;;;;;5044105;27;88085;-56
2023/09/22 03:24:12;;;;;;;;;;;21.10;64.90;;;;;;5043882;28;88820;-53
2023/09/22 03:26:38;;;;;;;;;;;21.10;64.90;;;;;;5043292;28;88548;-55
2023/09/22 03:29:04;;;;;;;;;;;21.00;64.90;;;;;;5044081;27;90570;-53
2023/09/22 03:31:30;;;;;;;;;;;21.00;64.90;;;;;;5043666;27;89428;-53
2023/09/22 03:33:55;;;;;;;;;;;21.10;64.90;;;;;;5044139;27;86907;-59
2023/09/22 03:36:21;;;;;;;;;;;21.00;64.90;;;;;;5044265;27;87545;-52
2023/09/22 03:38:49;;;;;;;;;;;21.00;64.90;;;;;;5046635;28;88329;-54
2023/09/22 03:41:18;;;;;;;;;;;21.00;64.90;;;;;;5039694;27;87087;-56
2023/09/22 03:43:44;;;;;;;;;;;21.00;65.00;;;;;;5044081;27;87897;-56
2023/09/22 03:46:10;;;;;;;;;;;21.00;64.90;;;;;;5043743;27;87128;-49
2023/09/22 03:48:39;;;;;;;;;;;21.00;65.00;;;;;;5044065;27;87609;-56
2023/09/22 03:51:05;;;;;;;;;;;21.00;64.80;;;;;;5042632;28;89687;-57
2023/09/22 03:53:31;;;;;;;;;;;21.00;64.90;;;;;;5039914;28;87024;-58
2023/09/22 03:55:57;;;;;;;;;;;20.90;64.90;;;;;;5043265;27;87596;-54
2023/09/22 03:58:23;;;;;;;;;;;20.90;65.00;;;;;;5043234;28;88537;-54
2023/09/22 04:00:49;;;;;;;;;;;20.90;64.90;;;;;;5046703;28;87331;-50
2023/09/22 04:03:15;;;;;;;;;;;20.90;64.90;;;;;;5043220;28;88237;-58
2023/09/22 04:05:40;;;;;;;;;;;20.90;65.00;;;;;;5043811;28;87127;-51
2023/09/22 04:08:06;;;;;;;;;;;20.90;64.90;;;;;;5043952;27;86752;-53
2023/09/22 04:10:32;;;;;;;;;;;20.90;65.00;;;;;;5042903;28;88502;-47
2023/09/22 04:12:58;;;;;;;;;;;20.90;65.00;;;;;;5043572;28;87523;-47
2023/09/22 04:15:23;;;;;;;;;;;20.90;65.00;;;;;;5042913;27;87906;-54
2023/09/22 04:17:50;;;;;;;;;;;20.80;65.00;;;;;;5042772;27;89211;-50
2023/09/22 04:20:26;;;;;;;;;;;20.80;64.90;;;;;;5043111;27;87151;-50
2023/09/22 04:22:53;;;;;;;;;;;20.80;64.90;;;;;;5042388;28;89320;-57
2023/09/22 04:25:19;;;;;;;;;;;20.80;64.90;;;;;;5043241;27;87131;-57
2023/09/22 04:27:53;;;;;;;;;;;20.80;65.00;;;;;;5042284;27;88880;-58
2023/09/22 04:30:20;;;;;;;;;;;20.80;65.10;;;;;;5042861;27;88386;-55
2023/09/22 04:32:47;;;;;;;;;;;20.80;65.10;;;;;;5043665;28;86276;-59
2023/09/22 04:35:13;;;;;;;;;;;20.70;65.00;;;;;;5042562;27;88586;-50
2023/09/22 04:37:40;;;;;;;;;;;20.70;65.10;;;;;;5042607;27;87975;-63
2023/09/22 04:40:11;;;;;;;;;;;20.70;65.20;;;;;;5042397;27;88259;-58
2023/09/22 04:42:37;;;;;;;;;;;20.60;65.10;;;;;;5042623;27;87639;-55
2023/09/22 04:45:03;;;;;;;;;;;20.70;65.20;;;;;;5045637;27;88484;-52
2023/09/22 04:47:28;;;;;;;;;;;20.70;65.20;;;;;;5042859;27;87730;-49
2023/09/22 04:49:54;;;;;;;;;;;20.70;65.20;;;;;;5042571;28;88148;-54
2023/09/22 04:52:19;;;;;;;;;;;20.70;65.20;;;;;;5042077;28;87022;-55
2023/09/22 04:54:45;;;;;;;;;;;20.70;65.20;;;;;;5043080;28;87731;-49
2023/09/22 04:57:10;;;;;;;;;;;20.70;65.10;;;;;;5042460;28;87276;-55
2023/09/22 04:59:36;;;;;;;;;;;20.60;65.10;;;;;;5042161;28;87577;-49
2023/09/22 05:02:03;;;;;;;;;;;20.60;65.10;;;;;;5042299;28;87609;-54
2023/09/22 05:04:29;;;;;;;;;;;20.60;65.10;;;;;;5040871;27;89473;-55
2023/09/22 05:06:54;;;;;;;;;;;20.70;65.20;;;;;;5044763;27;87168;-47
2023/09/22 05:09:20;;;;;;;;;;;20.60;65.20;;;;;;5041354;28;88476;-56
2023/09/22 05:11:45;;;;;;;;;;;20.60;65.20;;;;;;5041046;27;87208;-57
2023/09/22 05:14:12;;;;;;;;;;;20.60;65.20;;;;;;5039436;28;87430;-49
2023/09/22 05:16:37;;;;;;;;;;;20.60;65.00;;;;;;5042089;27;89461;-57
2023/09/22 05:19:03;;;;;;;;;;;20.60;65.20;;;;;;5042448;27;87131;-59
2023/09/22 05:21:29;;;;;;;;;;;20.60;65.30;;;;;;5042711;28;86678;-52
2023/09/22 05:23:55;;;;;;;;;;;20.60;65.80;;;;;;5041864;27;89137;-58
2023/09/22 05:26:20;;;;;;;;;;;20.60;65.10;;;;;;5041580;28;87242;-53
2023/09/22 05:28:46;;;;;;;;;;;20.60;65.10;;;;;;5044222;27;88132;-52
2023/09/22 05:31:12;;;;;;;;;;;20.60;65.00;;;;;;5042192;28;86949;-53
2023/09/22 05:33:37;;;;;;;;;;;20.60;65.10;;;;;;5042462;27;87412;-53
2023/09/22 05:36:03;;;;;;;;;;;20.60;65.10;;;;;;5041900;28;88930;-49
2023/09/22 05:38:29;;;;;;;;;;;20.60;65.10;;;;;;5042365;27;87188;-52
2023/09/22 05:40:55;;;;;;;;;;;20.60;65.10;;;;;;5042010;28;89315;-53
2023/09/22 05:43:22;;;;;;;;;;;20.60;65.00;;;;;;5041233;27;89346;-51
2023/09/22 05:45:54;;;;;;;;;;;20.50;65.10;;;;;;5042363;27;86603;-55
2023/09/22 05:48:21;;;;;;;;;;;20.60;65.10;;;;;;5040582;28;88029;-54
2023/09/22 05:50:59;;;;;;;;;;;20.50;65.10;;;;;;5041876;28;87111;-50
2023/09/22 05:53:25;;;;;;;;;;;20.50;65.10;;;;;;5041215;27;89406;-58
2023/09/22 05:56:04;;;;;;;;;;;20.50;65.10;;;;;;5041715;28;87426;-56
2023/09/22 05:58:30;;;;;;;;;;;20.50;65.10;;;;;;5041200;28;87266;-54
2023/09/22 06:00:57;;;;;;;;;;;20.50;65.10;;;;;;5041524;28;87224;-52
2023/09/22 06:03:22;;;;;;;;;;;20.50;65.10;;;;;;5041806;27;88596;-55
2023/09/22 06:05:49;;;;;;;;;;;20.50;65.10;;;;;;5041193;28;87572;-59
2023/09/22 06:08:15;;;;;;;;;;;20.50;65.10;;;;;;5045487;27;87168;-51
2023/09/22 06:10:42;;;;;;;;;;;20.50;65.00;;;;;;5048404;27;86280;-63
2023/09/22 06:13:09;;;;;;;;;;;20.50;65.10;;;;;;5044767;27;88069;-49
2023/09/22 06:15:34;;;;;;;;;;;20.50;65.20;;;;;;5044955;27;88477;-56
2023/09/22 06:18:00;;;;;;;;;;;20.50;65.80;;;;;;5044494;27;88241;-62
2023/09/22 06:20:26;;;;;;;;;;;20.50;65.20;;;;;;5045184;28;87996;-50
2023/09/22 06:22:52;;;;;;;;;;;20.40;65.20;;;;;;5044954;27;88111;-51
2023/09/22 06:25:18;;;;;;;;;;;20.50;65.20;;;;;;5044936;27;87466;-53
2023/09/22 06:27:44;;;;;;;;;;;20.50;65.20;;;;;;5044755;27;87910;-56
2023/09/22 06:30:12;;;;;;;;;;;20.40;65.20;;;;;;5044910;28;88158;-56
2023/09/22 06:32:41;;;;;;;;;;;20.50;65.10;;;;;;5047869;28;87133;-48
2023/09/22 06:35:10;;;;;;;;;;;20.50;65.10;;;;;;5041295;28;88761;-48
2023/09/22 06:37:41;;;;;;;;;;;20.50;65.20;;;;;;5044835;27;87026;-53
2023/09/22 06:40:11;;;;;;;;;;;20.50;65.20;;;;;;5043864;28;87107;-51
2023/09/22 06:42:38;;;;;;;;;;;20.50;65.10;;;;;;5043239;28;89213;-59
2023/09/22 06:45:04;;;;;;;;;;;20.50;65.20;;;;;;5044636;27;87080;-50
2023/09/22 06:47:29;;;;;;;;;;;20.50;65.10;;;;;;5044901;27;87694;-56
2023/09/22 06:49:56;;;;;;;;;;;20.50;65.20;;;;;;5044414;28;88366;-48
2023/09/22 06:52:22;;;;;;;;;;;20.50;65.10;;;;;;5044876;27;87143;-49
2023/09/22 06:54:49;;;;;;;;;;;20.50;65.10;;;;;;5047328;28;87685;-52
2023/09/22 06:57:14;;;;;;;;;;;20.50;65.10;;;;;;5043960;27;87148;-48
2023/09/22 06:59:40;;;;;;;;;;;20.50;65.20;;;;;;5041179;28;87559;-48
2023/09/22 07:02:06;;;;;;;;;;;20.50;65.20;;;;;;5043780;27;88498;-53
2023/09/22 07:04:33;;;;;;;;;;;20.50;65.20;;;;;;5044197;28;87092;-60
2023/09/22 07:07:01;;;;;;;;;;;20.50;65.20;;;;;;5043884;28;88155;-50
2023/09/22 07:09:27;;;;;;;;;;;20.50;65.20;;;;;;5043553;27;89594;-51
2023/09/22 07:11:52;;;;;;;;;;;20.50;65.20;;;;;;5043991;27;87130;-60
2023/09/22 07:14:18;;;;;;;;;;;20.50;65.10;;;;;;5044092;27;88614;-53
2023/09/22 07:16:44;;;;;;;;;;;20.50;65.20;;;;;;5046373;27;89372;-57
2023/09/22 07:19:10;;;;;;;;;;;20.60;65.10;;;;;;5044055;27;87901;-56
2023/09/22 07:21:35;;;;;;;;;;;20.60;65.20;;;;;;5043634;28;88523;-55
2023/09/22 07:24:01;;;;;;;;;;;20.60;65.20;;;;;;5044563;27;86329;-52
2023/09/22 07:26:27;;;;;;;;;;;20.50;65.20;;;;;;5044063;28;87660;-52
2023/09/22 07:28:52;;;;;;;;;;;20.60;65.20;;;;;;5042899;27;89762;-52
2023/09/22 07:31:21;;;;;;;;;;;20.60;65.20;;;;;;5043482;27;88018;-56
2023/09/22 07:33:46;;;;;;;;;;;20.60;65.20;;;;;;5044013;27;88887;-52
2023/09/22 07:36:12;;;;;;;;;;;20.60;65.20;;;;;;5043569;27;89370;-55
2023/09/22 07:38:38;;;;;;;;;;;20.60;65.30;;;;;;5046837;27;87670;-53
2023/09/22 07:41:04;;;;;;;;;;;20.60;65.30;;;;;;5043656;27;88473;-51
2023/09/22 07:43:30;;;;;;;;;;;20.60;65.30;;;;;;5043482;28;88084;-57
2023/09/22 07:45:56;;;;;;;;;;;20.60;65.30;;;;;;5043607;27;87806;-57
2023/09/22 07:48:21;;;;;;;;;;;20.60;65.20;;;;;;5043819;28;87400;-52
2023/09/22 07:50:47;;;;;;;;;;;20.60;65.30;;;;;;5042298;28;87240;-62
2023/09/22 07:53:12;;;;;;;;;;;20.60;65.30;;;;;;5043713;28;88026;-47
2023/09/22 07:55:40;;;;;;;;;;;20.60;65.30;;;;;;5042583;28;89178;-54
2023/09/22 07:58:06;;;;;;;;;;;20.60;65.30;;;;;;5044862;27;87152;-53
2023/09/22 08:00:32;;;;;;;;;;;20.60;65.40;;;;;;5043156;27;89188;-52
2023/09/22 08:02:59;;;;;;;;;;;20.60;65.40;;;;;;5039382;28;87200;-55
2023/09/22 08:05:25;;;;;;;;;;;20.60;65.30;;;;;;5043388;27;87444;-57
2023/09/22 08:07:51;;;;;;;;;;;20.60;65.30;;;;;;5043166;28;88337;-58
2023/09/22 08:10:22;;;;;;;;;;;20.60;65.30;;;;;;5043405;27;87172;-49
2023/09/22 08:12:48;;;;;;;;;;;20.60;65.40;;;;;;5043576;27;87608;-53
2023/09/22 08:15:14;;;;;;;;;;;20.60;65.30;;;;;;5043025;28;88370;-57
2023/09/22 08:17:41;;;;;;;;;;;20.60;65.30;;;;;;5043388;27;87096;-52
2023/09/22 08:20:08;;;;;;;;;;;20.60;65.30;;;;;;5045029;27;88784;-57
2023/09/22 08:22:34;;;;;;;;;;;20.60;65.30;;;;;;5042824;28;87200;-54
2023/09/22 08:25:00;;;;;;;;;;;20.60;65.30;;;;;;5042879;27;88918;-54
2023/09/22 08:27:25;;;;;;;;;;;20.60;65.20;;;;;;5041584;27;87612;-46
2023/09/22 08:29:51;;;;;;;;;;;20.60;65.20;;;;;;5042318;27;87249;-51
2023/09/22 08:32:17;;;;;;;;;;;20.60;65.20;;;;;;5042724;27;88799;-50
2023/09/22 08:34:42;;;;;;;;;;;20.60;65.10;;;;;;5042613;27;87946;-54
2023/09/22 08:37:08;;;;;;;;;;;20.60;65.10;;;;;;5043473;28;86701;-52
2023/09/22 08:39:33;;;;;;;;;;;20.60;65.00;;;;;;5043210;28;86972;-57
2023/09/22 08:41:59;;;;;;;;;;;20.60;65.00;;;;;;5045359;28;88592;-59
2023/09/22 08:44:28;;;;;;;;;;;20.60;65.00;;;;;;5042677;27;88128;-52
2023/09/22 08:46:54;;;;;;;;;;;20.60;65.00;;;;;;5042207;28;88486;-52
2023/09/22 08:49:22;;;;;;;;;;;20.60;65.00;;;;;;5042813;28;87107;-56
2023/09/22 08:51:48;;;;;;;;;;;20.70;65.10;;;;;;5042445;27;87560;-54
2023/09/22 08:54:14;;;;;;;;;;;20.60;65.00;;;;;;5042331;27;88259;-54
2023/09/22 08:56:40;;;;;;;;;;;20.60;65.00;;;;;;5042462;28;87096;-52
2023/09/22 08:59:08;;;;;;;;;;;20.70;65.00;;;;;;5041685;27;89425;-57
2023/09/22 09:01:34;;;;;;;;;;;20.70;65.60;;;;;;5038135;28;88710;-53
2023/09/22 09:04:20;;;;;;;;;;;20.70;65.00;;;;;;5045327;27;87158;-53
2023/09/22 09:06:46;;;;;;;;;;;20.70;65.10;;;;;;5038361;28;87622;-55
2023/09/22 09:09:12;;;;;;;;;;;20.70;65.00;;;;;;5041973;28;88416;-58
2023/09/22 09:11:56;;;;;;;;;;;20.70;65.10;;;;;;5042578;27;88955;-47
2023/09/22 09:14:28;;;;;;;;;;;20.70;65.10;;;;;;5038574;28;88499;-54
2023/09/22 09:16:56;;;;;;;;;;;20.70;65.10;;;;;;5042415;27;87021;-51
2023/09/22 09:19:22;;;;;;;;;;;20.70;65.10;;;;;;5042536;28;87621;-51
2023/09/22 09:22:05;;;;;;;;;;;20.70;65.10;;;;;;5041658;27;89495;-54
2023/09/22 09:24:31;;;;;;;;;;;20.70;65.00;;;;;;5040396;28;87170;-55
2023/09/22 09:26:57;;;;;;;;;;;20.70;65.00;;;;;;5044752;27;89096;-54
2023/09/22 09:29:29;;;;;;;;;;;20.70;65.10;;;;;;5041538;28;87224;-50
2023/09/22 09:32:00;;;;;;;;;;;20.70;65.00;;;;;;5038925;28;87568;-56
2023/09/22 09:34:39;;;;;;;;;;;20.70;65.00;;;;;;5040813;27;90976;-51
2023/09/22 09:37:13;;;;;;;;;;;20.80;65.10;;;;;;5038380;28;87105;-49
2023/09/22 09:39:46;;;;;;;;;;;20.80;65.10;;;;;;5045144;27;87589;-55
2023/09/22 09:42:13;;;;;;;;;;;20.80;65.10;;;;;;5045180;28;90010;-49
2023/09/22 09:44:42;;;;;;;;;;;20.80;65.10;;;;;;5044614;27;87176;-50
2023/09/22 09:47:08;;;;;;;;;;;20.80;65.20;;;;;;5048143;27;87895;-54
2023/09/22 09:49:34;;;;;;;;;;;20.80;65.30;;;;;;5045792;27;87367;-50
2023/09/22 09:52:02;;;;;;;;;;;20.90;65.30;;;;;;5046164;28;87597;-59
2023/09/22 09:54:29;;;;;;;;;;;20.80;65.30;;;;;;5045168;27;88713;-56
2023/09/22 09:56:55;;;;;;;;;;;20.90;65.40;;;;;;5045720;27;87104;-49
2023/09/22 09:59:21;;;;;;;;;;;20.90;65.20;;;;;;5044549;27;87953;-49
2023/09/22 10:01:47;;;;;;;;;;;20.90;65.20;;;;;;5044315;28;88192;-55
2023/09/22 10:04:13;;;;;;;;;;;20.90;65.20;;;;;;5045341;28;87187;-51
2023/09/22 10:06:39;;;;;;;;;;;20.90;65.40;;;;;;5045267;27;88933;-53
2023/09/22 10:09:09;;;;;;;;;;;20.90;65.50;;;;;;5047627;28;88359;-52
2023/09/22 10:11:35;;;;;;;;;;;20.90;65.40;;;;;;5044473;27;87121;-56
2023/09/22 10:14:01;;;;;;;;;;;21.00;67.70;;;;;;5041070;27;88181;-57
2023/09/22 10:16:28;;;;;;;;;;;21.10;68.40;;;;;;5043281;27;87614;-60
2023/09/22 10:18:57;;;;;;;;;;;21.20;67.30;;;;;;5044047;27;87587;-59
2023/09/22 10:21:29;;;;;;;;;;;21.30;67.40;;;;;;5044238;27;88289;-56
2023/09/22 10:24:14;;;;;;;;;;;21.30;68.40;;;;;;5041930;27;88103;-56
2023/09/22 10:26:59;;;;;;;;;;;21.50;68.10;;;;;;5039977;27;88470;-54
2023/09/22 10:29:51;;;;;;;;;;;21.70;67.70;;;;;;5043413;27;90481;-62
2023/09/22 10:32:24;;;;;;;;;;;21.70;67.50;;;;;;5042409;27;87295;-56
2023/09/22 10:34:55;;;;;;;;;;;21.60;67.40;;;;;;5041813;27;89600;-53
2023/09/22 10:37:28;;;;;;;;;;;21.70;66.50;;;;;;5042144;27;87209;-54
2023/09/22 10:39:53;;;;;;;;;;;21.70;65.90;;;;;;5040550;28;88563;-50
2023/09/22 10:42:20;;;;;;;;;;;21.80;66.20;;;;;;5042468;27;88068;-50
2023/09/22 10:44:56;;;;;;;;;;;22.00;65.70;;;;;;5042934;27;87119;-51
2023/09/22 10:47:22;;;;;;;;;;;22.20;64.40;;;;;;5043017;27;88840;-50
2023/09/22 10:49:48;;;;;;;;;;;22.50;62.90;;;;;;5042079;27;89647;-45
2023/09/22 10:52:18;;;;;;;;;;;22.70;62.30;;;;;;5041524;27;87445;-47
2023/09/22 10:54:47;;;;;;;;;;;22.60;62.20;;;;;;5041553;27;87456;-46
2023/09/22 10:57:22;;;;;;;;;;;22.70;63.00;;;;;;5043562;27;87153;-52
2023/09/22 10:59:48;;;;;;;;;;;22.80;61.50;;;;;;5039770;27;87144;-53
2023/09/22 11:02:23;;;;;;;;;;;22.90;60.50;;;;;;5040030;27;88321;-44
2023/09/22 11:04:49;;;;;;;;;;;23.00;60.80;;;;;;5039313;28;87294;-47
2023/09/22 11:07:33;;;;;;;;;;;23.00;61.30;;;;;;5038969;28;89181;-48
2023/09/22 11:09:59;;;;;;;;;;;23.00;61.90;;;;;;5042133;27;88095;-49
2023/09/22 11:12:26;;;;;;;;;;;23.20;60.00;;;;;;5039151;27;87137;-51
2023/09/22 11:14:53;;;;;;;;;;;23.40;59.60;;;;;;5042936;27;88543;-46
2023/09/22 11:17:19;;;;;;;;;;;23.30;60.20;;;;;;5046250;27;87712;-48
2023/09/22 11:19:51;;;;;;;;;;;23.40;59.00;;;;;;5041481;27;87993;-49
2023/09/22 11:22:16;;;;;;;;;;;23.40;59.10;;;;;;5039289;27;90137;-46
2023/09/22 11:24:42;;;;;;;;;;;23.40;59.10;;;;;;5043702;27;87085;-47
2023/09/22 11:27:10;;;;;;;;;;;23.50;59.40;;;;;;5042959;27;87830;-50
2023/09/22 11:29:36;;;;;;;;;;;23.60;59.30;;;;;;5043428;27;88246;-47
2023/09/22 11:32:03;;;;;;;;;;;23.50;58.40;;;;;;5041209;27;86373;-48
2023/09/22 11:34:28;;;;;;;;;;;23.60;59.20;;;;;;5043481;28;88883;-51
2023/09/22 11:36:57;;;;;;;;;;;23.60;59.90;;;;;;5041483;27;89556;-50
2023/09/22 11:39:34;;;;;;;;;;;23.60;60.00;;;;;;5042280;27;88241;-51
2023/09/22 11:42:01;;;;;;;;;;;23.80;59.20;;;;;;5042551;27;89920;-49
2023/09/22 11:44:27;;;;;;;;;;;24.00;59.40;;;;;;5042437;27;87662;-51
2023/09/22 11:46:52;;;;;;;;;;;23.90;58.90;;;;;;5042827;27;87553;-49
2023/09/22 11:49:18;;;;;;;;;;;23.90;59.60;;;;;;5038088;27;88965;-47
2023/09/22 11:51:44;;;;;;;;;;;24.00;59.70;;;;;;5043519;27;87102;-50
2023/09/22 11:54:11;;;;;;;;;;;24.00;58.80;;;;;;5042869;27;87555;-47
2023/09/22 11:56:36;;;;;;;;;;;24.10;58.60;;;;;;5041112;27;88269;-50
2023/09/22 11:59:05;;;;;;;;;;;24.00;59.10;;;;;;5041566;27;87148;-52
2023/09/22 12:01:30;;;;;;;;;;;24.00;58.40;;;;;;5042018;28;87257;-48
2023/09/22 12:03:56;;;;;;;;;;;24.00;59.50;;;;;;5041414;27;88209;-46
2023/09/22 12:06:21;;;;;;;;;;;24.10;57.70;;;;;;5041081;27;88813;-50
2023/09/22 12:08:47;;;;;;;;;;;24.30;56.30;;;;;;5041946;27;87830;-52
2023/09/22 12:11:12;;;;;;;;;;;24.10;58.60;;;;;;5043226;28;87229;-54
2023/09/22 12:13:40;;;;;;;;;;;24.00;59.50;;;;;;5040525;27;87519;-50
2023/09/22 12:16:06;;;;;;;;;;;23.80;59.70;;;;;;5039523;27;88673;-55
2023/09/22 12:18:31;;;;;;;;;;;23.80;59.30;;;;;;5042315;28;87222;-55
2023/09/22 12:20:57;;;;;;;;;;;23.70;59.60;;;;;;5042301;28;87584;-56
2023/09/22 12:23:22;;;;;;;;;;;23.70;59.30;;;;;;5040765;27;89283;-56
2023/09/22 12:25:51;;;;;;;;;;;23.70;60.20;;;;;;5039751;27;87675;-56
2023/09/22 12:28:17;;;;;;;;;;;23.70;60.50;;;;;;5041673;27;89100;-54
2023/09/22 12:30:43;;;;;;;;;;;23.70;60.70;;;;;;5041355;27;87184;-56
2023/09/22 12:33:09;;;;;;;;;;;23.70;60.60;;;;;;5040204;27;87586;-55
2023/09/22 12:35:35;;;;;;;;;;;23.70;60.60;;;;;;5037304;28;88290;-54
2023/09/22 12:38:00;;;;;;;;;;;23.70;60.80;;;;;;5041875;27;87156;-52
2023/09/22 12:40:26;;;;;;;;;;;23.80;60.90;;;;;;5041656;27;88171;-54
2023/09/22 12:42:52;;;;;;;;;;;23.80;61.40;;;;;;5042340;27;88329;-56
2023/09/22 12:45:19;;;;;;;;;;;23.80;61.10;;;;;;5038856;27;87570;-53
2023/09/22 12:47:45;;;;;;;;;;;23.80;60.90;;;;;;5042067;27;88178;-54
2023/09/22 12:50:10;;;;;;;;;;;23.70;60.70;;;;;;5043687;27;87245;-56
2023/09/22 12:52:37;;;;;;;;;;;23.80;60.80;;;;;;5041734;27;88543;-55
2023/09/22 12:55:03;;;;;;;;;;;23.80;61.20;;;;;;5041318;27;89740;-57
2023/09/22 12:57:29;;;;;;;;;;;23.90;61.20;;;;;;5042079;27;87093;-55
2023/09/22 12:59:56;;;;;;;;;;;24.00;62.10;;;;;;5041892;27;87763;-54
2023/09/22 13:02:22;;;;;;;;;;;24.00;61.30;;;;;;5042752;27;88154;-56
2023/09/22 13:04:48;;;;;;;;;;;24.00;60.90;;;;;;5042134;28;87458;-54
2023/09/22 13:07:17;;;;;;;;;;;24.10;61.00;;;;;;5039854;27;87654;-49
2023/09/22 13:09:43;;;;;;;;;;;24.10;60.70;;;;;;5039971;27;87693;-50
2023/09/22 13:12:09;;;;;;;;;;;24.10;60.60;;;;;;5042291;28;87183;-53
2023/09/22 13:14:35;;;;;;;;;;;24.10;60.30;;;;;;5041082;27;87356;-50
2023/09/22 13:17:01;;;;;;;;;;;24.10;60.30;;;;;;5039148;27;88133;-52
2023/09/22 13:19:28;;;;;;;;;;;24.20;59.80;;;;;;5039932;27;88446;-52
2023/09/22 13:21:54;;;;;;;;;;;24.20;60.10;;;;;;5037511;28;88010;-57
2023/09/22 13:24:20;;;;;;;;;;;24.10;60.40;;;;;;5040850;27;87631;-54
2023/09/22 13:26:45;;;;;;;;;;;24.10;60.60;;;;;;5042543;27;88926;-55
2023/09/22 13:29:11;;;;;;;;;;;24.10;60.40;;;;;;5038209;27;87247;-56
2023/09/22 13:31:36;;;;;;;;;;;24.20;60.30;;;;;;5039905;28;90764;-53
2023/09/22 13:34:02;;;;;;;;;;;24.20;60.30;;;;;;5042751;27;88914;-54
2023/09/22 13:36:28;;;;;;;;;;;24.20;60.40;;;;;;5045899;27;87700;-58
2023/09/22 13:38:53;;;;;;;;;;;24.20;60.50;;;;;;5038319;27;87756;-53
2023/09/22 13:41:19;;;;;;;;;;;24.20;60.60;;;;;;5041048;28;89102;-54
2023/09/22 13:43:45;;;;;;;;;;;24.20;60.70;;;;;;5039868;28;87647;-58
2023/09/22 13:46:12;;;;;;;;;;;24.20;60.80;;;;;;5039456;27;87506;-56
2023/09/22 13:48:38;;;;;;;;;;;24.10;60.90;;;;;;5041199;27;88672;-56
2023/09/22 13:51:04;;;;;;;;;;;24.10;61.10;;;;;;5041874;27;87572;-54
2023/09/22 13:53:30;;;;;;;;;;;24.10;61.30;;;;;;5039585;27;88187;-53
2023/09/22 13:55:56;;;;;;;;;;;24.00;61.40;;;;;;5040237;27;88235;-51
2023/09/22 13:58:21;;;;;;;;;;;24.00;61.40;;;;;;5040481;28;87609;-56
2023/09/22 14:00:47;;;;;;;;;;;24.00;61.50;;;;;;5041026;28;88638;-55
2023/09/22 14:03:13;;;;;;;;;;;24.00;61.60;;;;;;5039000;27;86996;-58
2023/09/22 14:05:39;;;;;;;;;;;24.00;61.70;;;;;;5037477;27;88239;-57
2023/09/22 14:08:05;;;;;;;;;;;24.00;61.60;;;;;;5044113;28;88225;-53
2023/09/22 14:10:30;;;;;;;;;;;24.10;61.60;;;;;;5040687;27;88875;-56
2023/09/22 14:12:56;;;;;;;;;;;24.10;61.60;;;;;;5039251;27;89318;-57
2023/09/22 14:15:22;;;;;;;;;;;24.10;61.60;;;;;;5039494;27;87496;-56